Date,TemperatureHighF,TemperatureAvgF,TemperatureLowF,DewpointHighF,DewpointAvgF,DewpointLowF,HumidityHigh,HumidityAvg,HumidityLow,PressureMaxIn,PressureMinIn,WindSpeedMaxMPH,WindSpeedAvgMPH,GustSpeedMaxMPH,PrecipitationSumIn
2013-3-1,44.8,37.6,32.7,13.2,7.9,0.8,43,30,20,29.82,29.62,18,4,18,0.04
2013-3-2,40.3,34.8,31.1,3.2,0.2,-2.4,25,22,21,29.97,29.71,14,5,14,0.66
2013-3-3,36.5,31.6,26.1,1.3,-2.2,-6.0,24,23,22,29.79,29.68,18,6,18,0.00
2013-3-4,40.5,33.6,29.5,3.6,-0.8,-3.7,23,22,21,29.94,29.76,24,8,24,0.00
2013-3-5,48.2,38.1,30.9,7.9,2.2,-2.5,27,22,19,30.03,29.88,14,4,14,0.00
2013-3-6,40.8,37.6,34.3,17.2,12.2,4.0,46,35,27,29.91,29.71,32,10,33,0.17
2013-3-7,47.1,39.3,34.3,13.8,6.5,2.9,42,26,19,30.06,29.88,18,6,18,0.00
2013-3-8,43.3,35.2,29.8,18.7,10.4,2.7,55,37,23,30.21,30.00,18,6,18,0.20
2013-3-9,60.3,44.3,31.1,15.0,6.2,-0.9,25,21,17,30.30,30.18,13,4,13,0.00
2013-3-10,57.9,42.8,30.2,15.3,7.5,-3.3,40,24,17,30.33,30.21,12,3,14,0.00
2013-3-11,60.4,47.3,37.4,39.8,24.2,14.6,82,45,17,30.27,30.03,14,3,14,0.04
2013-3-12,58.6,52.3,40.8,50.2,32.6,11.2,74,49,28,30.03,29.68,22,6,22,1.12
2013-3-13,49.3,40.9,32.9,11.8,6.6,-0.6,38,24,19,29.94,29.82,22,6,22,0.00
2013-3-14,41.0,34.8,28.6,3.8,0.2,-3.9,32,22,21,30.00,29.88,28,8,28,0.00
2013-3-15,52.2,39.7,26.8,10.7,2.8,-7.8,23,21,18,30.00,29.71,18,4,18,0.00
2013-3-16,46.6,37.0,32.5,23.5,11.3,0.5,67,38,19,29.91,29.71,12,4,12,0.09
2013-3-17,39.2,33.7,28.4,22.0,5.7,-1.6,62,33,21,30.27,29.88,15,3,15,1.25
2013-3-18,39.2,33.0,28.9,27.3,6.8,-4.2,71,36,21,30.36,29.91,18,6,18,0.50
2013-3-19,51.3,41.0,35.6,30.7,18.7,1.0,77,47,19,29.91,29.68,23,6,23,0.74
2013-3-20,47.1,39.3,32.2,7.4,2.8,-1.4,23,21,19,29.91,29.76,26,6,26,0.00
2013-3-21,39.4,33.0,28.4,15.4,2.6,-4.7,51,28,21,29.82,29.65,18,5,18,0.00
2013-3-22,40.3,33.3,27.1,3.3,-1.3,-5.7,23,22,21,29.91,29.74,27,7,27,0.00
2013-3-23,47.3,38.0,29.3,7.4,1.9,-3.9,23,21,19,29.94,29.82,20,6,20,0.00
2013-3-24,46.8,37.7,27.1,7.4,2.1,-5.6,28,22,19,29.94,29.65,13,3,13,0.00
2013-3-25,37.4,35.4,32.9,26.3,15.8,1.4,69,48,22,29.68,29.47,18,5,21,0.50
2013-3-26,50.9,41.2,34.3,27.1,14.9,5.6,74,39,19,29.91,29.59,18,4,18,0.04
2013-3-27,50.7,41.5,32.7,17.3,10.1,4.5,50,29,19,30.03,29.88,22,5,22,0.00
2013-3-28,47.5,41.8,34.0,8.8,6.0,3.6,30,23,19,30.12,29.97,18,5,18,0.00
2013-3-29,53.2,44.7,31.3,10.9,6.6,0.0,30,21,18,30.15,30.06,15,4,16,0.00
2013-3-30,58.1,44.3,29.1,13.2,8.6,1.4,42,24,17,30.18,30.06,13,2,13,0.00
2013-3-31,57.2,46.5,35.4,42.2,18.1,2.6,79,37,17,30.09,29.71,17,3,17,0.13